Impacts METAR Board INFO
IDs:

KMSP - Minneapolis-St Paul, MN, US

Updated at: 0428 UTC 21 Jan 2018
Potential Impact None Slight Moderate High
Time20/16Z 20/17Z 20/18Z 20/19Z 20/20Z 20/21Z 20/22Z 20/23Z 21/00Z 21/01Z 21/02Z 21/03Z 21/04Z
VIS8 10 10 10 10 10 10 10 10 10 10 10 10
CIG180 -- 90 90 100 100 -- 85 150 250 250 250 250
CoverBKNSCTOVCOVCBKNBKNSCTOVCBKNBKNBKNBKNBKN
FltCatVFRVFRVFRVFRVFRVFRVFRVFRVFRVFRVFRVFRVFR
WX--------------------------
WDir230021024002002102402102502302800
WSpd3 3 4 5 0 3 3 3 3 4 3 3 0
WGst-- -- -- -- -- -- -- -- -- -- -- -- --
Raw hourly METARs
KMSP 201553Z 23003KT 8SM SCT110 BKN180 00/M01 A2989 RMK AO2 SLP130 T00001011
KMSP 201653Z VRB03KT 10SM FEW090 SCT200 02/00 A2989 RMK AO2 SLP131 T00170000
KMSP 201753Z 21004KT 10SM BKN090 OVC200 03/00 A2989 RMK AO2 SLP129 4/001 T00330000 10033 21044 50007
KMSP 201853Z 24005KT 10SM OVC090 04/00 A2989 RMK AO2 SLP130 T00390000
KMSP 201953Z 00000KT 10SM BKN100 05/01 A2987 RMK AO2 SLP123 T00500006
KMSP 202053Z 20003KT 10SM BKN100 05/01 A2988 RMK AO2 SLP126 T00500006 55003
KMSP 202153Z 21003KT 10SM SCT090 06/01 A2989 RMK AO2 SLP128 T00560006
KMSP 202253Z 24003KT 10SM OVC085 05/00 A2990 RMK AO2 SLP135 T00500000
KMSP 202353Z 21003KT 10SM SCT080 BKN150 04/01 A2992 RMK AO2 SLP141 4/001 T00440006 10056 20033 53014
KMSP 210053Z 25004KT 10SM SCT110 BKN250 03/00 A2993 RMK AO2 SLP143 T00330000
KMSP 210153Z 23003KT 10SM SCT110 BKN250 03/00 A2993 RMK AO2 SLP142 T00330000
KMSP 210253Z 28003KT 10SM SCT130 BKN250 03/00 A2993 RMK AO2 SLP142 T00280000 51001
KMSP 210353Z 00000KT 10SM SCT120 BKN250 02/00 A2993 RMK AO2 SLP146 T00170000